Prichard, Mississippi
Current Conditions -  °F | °C
As of 8:15 AM on Saturday 25 Oct 2014 (Local Time) from KUTA Reporting Station
Haze Haze  
Wind Chill: 55°   Ceiling: Unl
Heat Index: 55°   Visibility: 5mi
Dew Point: 54°   Wind: 3mph
Humidity: 94%   Direction: 160°SSE
Pressure: 30.13"   Gusts: NA
Location:  34.6827°N, 90.3615°W
Report Text: KUTA 251315Z AUTO 16003KT 5SM BR CLR 13/12 A3013 RMK AO2
Loading
Personal Weather Stations






























Interactive Weather Map
Tropical Storm Tracking
New forecast layout! Learn more

10-Day Weather Forecast

Advertisements
Track Severe Weather on mobile